Terminal Aerodrome Forecast
Issued by NWS

Home | Current Version | Previous Version | Text Only | Print | Product List | Glossary On
Versions: 1 2 3 4 5 6 7 8 9 10 11 12 13 14 15 16 17 18
000
FTUS46 KMTR 110520
TAFSNS
TAF
KSNS 110520Z 1106/1206 26004KT P6SM BKN015 OVC030
     FM110700 VRB02KT P6SM SCT020 BKN040
     FM110900 VRB03KT P6SM BKN200
     FM112000 31008KT P6SM FEW040 BKN200
     FM120300 28006KT P6SM BKN200=

USA.gov is the U.S. government's official web portal to all federal, state and local government web resources and services.